• Join FlightAware (Why Join?)
  • Login
  • US Flag 
06:19AM EDT


 

Airport Tracker/Info


-or-


 

Live Flight TrackerFlight Track Log ✈ N45NS ✈ 10-Sep-2013 ✈ KBJJ - CYKF

Flight Track Log - Related Links

Times and Time Zones

All times are in EDT time to prevent confusion due to time zone crossing. See the N45NS flight status page for this flight to view local times or setup timezone preferences in your user account.

Time Position Orientation Groundspeed Altitude Reporting Facility
EDT Latitude Longitude Course Direction KTS MPH feet Rate Location/Type
08:24AM 40.8125 -81.8725 North 221 254 4,900  Level Cleveland Center
08:25AM 40.8489 -81.7744 64° Northeast 232 267 7,600 2,460 Climbing Cleveland Center
08:26AM 40.8936 -81.6792 58° Northeast 266 306 9,900 2,280 Climbing Cleveland Center
08:27AM 40.9383 -81.5808 59° Northeast 298 343 12,200 2,220 Climbing Cleveland Center
08:28AM 40.9831 -81.4797 60° Northeast 308 354 14,400 2,100 Climbing Cleveland Center
08:29AM 41.2490 -81.6780 North  Level Estimated
08:29AM 41.0317 -81.3758 58° Northeast 319 367 16,500  Level Cleveland Center
08:30AM 41.0783 -81.2661 61° Northeast 324 373 18,000 1,680 Climbing Cleveland Center
08:31AM 41.1517 -81.1869 39° Northeast 335 386 19,900 1,740 Climbing Cleveland Center
08:32AM 41.2456 -81.1547 14° North 328 377 21,500 1,500 Climbing Cleveland Center
08:33AM 41.3439 -81.1225 14° North 349 402 22,900 720 Climbing Cleveland Center
08:34AM 41.4481 -81.0872 14° North 372 428 23,000  Climbing Cleveland Center
08:35AM 41.5589 -81.0494 14° North 392 451 23,000  Level Cleveland Center
08:36AM 41.6672 -81.0139 14° North 392 451 23,000  Level Cleveland Center
08:37AM 41.7781 -80.9758 14° North 398 458 23,000  Level Cleveland Center
08:38AM 41.8739 -80.9400 16° North 398 458 23,000  Level Cleveland Center
08:39AM 41.9844 -80.9044 13° North 393 452 23,000  Level Cleveland Center
08:40AM 42.0908 -80.8658 15° North 400 460 23,000 -300 Level Cleveland Center
08:41AM 42.2014 -80.8297 14° North 400 460 22,400 -1,380 Descending Cleveland Center
08:42AM 42.3100 -80.7908 15° North 394 453 20,300 -2,040 Descending Cleveland Center
08:43AM 42.4183 -80.7519 15° North 394 453 18,400 -1,860 Descending Cleveland Center
08:44AM 42.5122 -80.6875 27° Northeast 378 435 16,600 -1,740 Descending Cleveland Center
08:45AM 42.6144 -80.6228 25° Northeast 370 426 15,000 -1,740 Descending Cleveland Center
08:46AM 42.7042 -80.5522 30° Northeast 365 420 13,200 -1,920 Descending Cleveland Center
08:47AM 42.7958 -80.4956 24° Northeast 365 420 11,200 -2,040 Descending Cleveland Center
08:48AM 42.8875 -80.4728 10° North 340 391 9,200 -1,920 Descending Cleveland Center
08:49AM 42.9667 -80.4500 12° North 290 334 7,200 -1,500 Descending Toronto Center
08:50AM 43.0500 -80.4333 North 280 322 6,100 -1,140 Descending Toronto Center
08:51AM 43.1167 -80.3833 29° Northeast 280 322 5,000 -600 Descending Toronto Center
08:52AM 43.1833 -80.3500 20° North 280 322 5,000  Level Toronto Center
08:53AM 43.2500 -80.3000 29° Northeast 280 322 5,000 -600 Level Toronto Center
08:54AM 43.3167 -80.2500 29° Northeast 280 322 3,900 -1,020 Descending Toronto Center
08:55AM 43.3833 -80.2000 29° Northeast 270 311 3,000 -480 Descending Toronto Center
08:56AM 43.4500 -80.1833 10° North 250 288 3,000  Level Toronto Center
08:57AM 43.4833 -80.2333 313° West 200 230 3,000 -420 Level Toronto Center
08:58AM 43.4833 -80.2833 270° West 150 173 2,200 -780 Descending Toronto Center
08:59AM 43.4667 -80.3167 235° Southwest 120 138 1,500 -720 Descending Toronto Center